Time;durP1;ratioP1;P1;durP2;ratioP2;P2;SDS_P1;SDS_P2;PMS_P1;PMS_P2;Temp;Humidity;BMP_temperature;BMP_pressure;BME280_temperature;BME280_humidity;BME280_pressure;Samples;Min_cycle;Max_cycle;Signal;HPM_P1;HPM_P2
2021/07/24 00:00:18;;;;;;;;;;;;;;;20.14;80.66;95473.88;1049120;28;19912;-74
2021/07/24 00:00:48;;;;;;;;;;;;;;;20.13;81.09;95479.66;1049086;28;20383;-75
2021/07/24 00:01:18;;;;;;;;;;;;;;;20.13;80.57;95471.50;1049114;28;19916;-74
2021/07/24 00:01:51;;;;;;;;;;;;;;;20.12;80.85;95478.84;1049042;28;19928;-73
2021/07/24 00:02:21;;;;;;;;;;;;;;;20.12;80.86;95475.38;1048956;28;19951;-74
2021/07/24 00:02:51;;;;;;;;;;;;;;;20.09;80.47;95474.09;1049114;28;19963;-73
2021/07/24 00:03:23;;;;;;;;;;;;;;;20.09;80.75;95474.09;1048955;28;19963;-74
2021/07/24 00:03:56;;;;;;;;;;;;;;;20.10;80.97;95467.53;1049659;28;19944;-75
2021/07/24 00:04:27;;;;;;;;;;;;;;;20.08;81.10;95469.03;1053512;28;19984;-74
2021/07/24 00:04:57;;;;;;;;;;;;;;;20.03;81.41;95480.91;1053569;28;19908;-75
2021/07/24 00:05:27;;;;;;;;;;;;;;;19.97;81.02;95474.94;1053489;28;19912;-73
2021/07/24 00:05:58;;;;;;;;;;;;;;;19.97;81.21;95469.50;1048785;28;20035;-74
2021/07/24 00:06:28;;;;;;;;;;;;;;;19.99;81.28;95477.28;1048876;28;19904;-74
2021/07/24 00:06:59;;;;;;;;;;;;;;;19.98;81.02;95473.00;1048964;28;19940;-74
2021/07/24 00:07:29;;;;;;;;;;;;;;;19.96;81.36;95467.94;1049114;28;19912;-72
2021/07/24 00:07:59;;;;;;;;;;;;;;;19.97;81.42;95466.00;1048905;28;20365;-74
2021/07/24 00:08:30;;;;;;;;;;;;;;;19.99;81.06;95471.88;1048991;28;19908;-74
2021/07/24 00:09:04;;;;;;;;;;;;;;;19.94;81.30;95472.91;1044676;28;19913;-73
2021/07/24 00:09:34;;;;;;;;;;;;;;;19.96;81.20;95477.97;1044772;28;19919;-74
2021/07/24 00:10:05;;;;;;;;;;;;;;;19.94;81.20;95472.91;1044790;28;19915;-74
2021/07/24 00:10:35;;;;;;;;;;;;;;;19.94;81.29;95474.81;1045410;28;20363;-74
2021/07/24 00:11:09;;;;;;;;;;;;;;;19.93;81.27;95479.47;1049048;28;19909;-73
2021/07/24 00:11:39;;;;;;;;;;;;;;;19.92;81.13;95469.75;1049144;28;20362;-74
2021/07/24 00:12:13;;;;;;;;;;;;;;;19.94;81.19;95472.91;1053066;28;19908;-74
2021/07/24 00:12:44;;;;;;;;;;;;;;;19.92;81.44;95472.47;1053292;28;19915;-74
2021/07/24 00:13:14;;;;;;;;;;;;;;;19.93;81.97;95473.25;1053295;28;19962;-74
2021/07/24 00:13:45;;;;;;;;;;;;;;;19.92;81.44;95474.38;1052695;28;20554;-74
2021/07/24 00:14:15;;;;;;;;;;;;;;;19.90;81.48;95477.41;1049369;28;19912;-74
2021/07/24 00:14:45;;;;;;;;;;;;;;;19.91;81.49;95475.50;1053383;28;19912;-74
2021/07/24 00:15:16;;;;;;;;;;;;;;;19.93;81.89;95478.66;1053217;28;19915;-74
2021/07/24 00:15:46;;;;;;;;;;;;;;;19.92;81.23;95475.16;1053680;28;19912;-74
2021/07/24 00:16:16;;;;;;;;;;;;;;;19.92;81.21;95471.69;1053439;28;19923;-74
2021/07/24 00:16:46;;;;;;;;;;;;;;;19.95;81.19;95479.91;1049231;28;20448;-73
2021/07/24 00:17:17;;;;;;;;;;;;;;;19.95;81.14;95471.75;1049445;28;19920;-74
2021/07/24 00:17:47;;;;;;;;;;;;;;;19.96;81.34;95476.06;1050422;28;19943;-74
2021/07/24 00:18:18;;;;;;;;;;;;;;;19.94;81.52;95470.19;1054466;28;19954;-74
2021/07/24 00:18:48;;;;;;;;;;;;;;;19.95;81.51;95465.53;1054373;28;19916;-74
2021/07/24 00:19:18;;;;;;;;;;;;;;;19.95;81.47;95466.34;1054847;28;19904;-72
2021/07/24 00:19:48;;;;;;;;;;;;;;;19.94;81.70;95464.75;1050039;28;19916;-74
2021/07/24 00:20:19;;;;;;;;;;;;;;;19.96;81.34;95462.50;1045659;28;19912;-73
2021/07/24 00:20:49;;;;;;;;;;;;;;;19.93;81.38;95459.69;1045438;28;19917;-73
2021/07/24 00:21:19;;;;;;;;;;;;;;;19.90;81.43;95463.84;1046637;28;20312;-73
2021/07/24 00:21:50;;;;;;;;;;;;;;;19.86;81.55;95460.28;1050658;28;19917;-74
2021/07/24 00:22:20;;;;;;;;;;;;;;;19.90;81.35;95463.06;1051915;28;19920;-74
2021/07/24 00:22:50;;;;;;;;;;;;;;;19.91;81.62;95454.63;1053895;28;19920;-73
2021/07/24 00:23:21;;;;;;;;;;;;;;;19.89;81.72;95456.88;1054700;28;19931;-73
2021/07/24 00:23:51;;;;;;;;;;;;;;;19.86;81.80;95454.84;1054592;28;19951;-74
2021/07/24 00:24:21;;;;;;;;;;;;;;;19.87;81.82;95456.44;1053911;28;19912;-74
2021/07/24 00:24:51;;;;;;;;;;;;;;;19.85;82.00;95461.38;1053670;28;20356;-74
2021/07/24 00:25:22;;;;;;;;;;;;;;;19.88;81.79;95455.28;1054012;28;19966;-74
2021/07/24 00:25:52;;;;;;;;;;;;;;;19.90;81.92;95452.22;1057831;28;19904;-74
2021/07/24 00:26:22;;;;;;;;;;;;;;;19.89;81.76;95453.38;1056788;28;19919;-73
2021/07/24 00:26:52;;;;;;;;;;;;;;;19.86;82.17;95452.13;1056082;28;19960;-74
2021/07/24 00:27:23;;;;;;;;;;;;;;;19.83;82.18;95452.81;1055132;28;20392;-74
2021/07/24 00:27:53;;;;;;;;;;;;;;;19.85;82.28;95447.81;1055119;28;19908;-74
2021/07/24 00:28:23;;;;;;;;;;;;;;;19.86;82.11;95441.28;1055161;28;20299;-74
2021/07/24 00:28:54;;;;;;;;;;;;;;;19.84;82.27;95448.97;1055140;28;19915;-74
2021/07/24 00:29:24;;;;;;;;;;;;;;;19.81;82.59;95449.66;1055146;28;19910;-74
2021/07/24 00:29:54;;;;;;;;;;;;;;;19.83;82.38;95449.31;1055078;28;20364;-74
2021/07/24 00:30:24;;;;;;;;;;;;;;;19.83;82.18;95449.31;1055213;28;19934;-74
2021/07/24 00:30:55;;;;;;;;;;;;;;;19.83;82.16;95441.19;1054931;28;19927;-74
2021/07/24 00:31:25;;;;;;;;;;;;;;;19.85;82.58;95445.13;1054967;28;19914;-74
2021/07/24 00:31:55;;;;;;;;;;;;;;;19.85;82.66;95444.31;1055306;28;19911;-74
2021/07/24 00:32:27;;;;;;;;;;;;;;;19.85;82.49;95447.03;1055371;28;20345;-74
2021/07/24 00:32:57;;;;;;;;;;;;;;;19.81;82.79;95444.25;1050471;28;19930;-74
2021/07/24 00:33:27;;;;;;;;;;;;;;;19.81;82.91;95441.53;1050287;28;19935;-74
2021/07/24 00:33:57;;;;;;;;;;;;;;;19.80;82.81;95433.72;1050888;28;19919;-74
2021/07/24 00:34:28;;;;;;;;;;;;;;;19.80;82.97;95431.78;1050587;28;19948;-74
2021/07/24 00:34:58;;;;;;;;;;;;;;;19.81;82.70;95429.88;1054843;28;19908;-73
2021/07/24 00:35:28;;;;;;;;;;;;;;;19.80;83.00;95431.78;1054977;28;19973;-73
2021/07/24 00:35:59;;;;;;;;;;;;;;;19.82;83.12;95431.47;1054971;28;19904;-73
2021/07/24 00:36:29;;;;;;;;;;;;;;;19.81;82.82;95429.88;1053456;28;19927;-73
2021/07/24 00:36:59;;;;;;;;;;;;;;;19.77;82.86;95434.41;1053423;28;19908;-73
2021/07/24 00:37:30;;;;;;;;;;;;;;;19.71;83.45;95429.22;1053334;28;19920;-73
2021/07/24 00:38:00;;;;;;;;;;;;;;;19.74;83.15;95428.53;1048858;28;19939;-73
2021/07/24 00:38:32;;;;;;;;;;;;;;;19.72;83.34;95430.81;1048795;28;19951;-73
2021/07/24 00:39:02;;;;;;;;;;;;;;;19.71;83.46;95426.53;1045794;28;19905;-73
2021/07/24 00:39:32;;;;;;;;;;;;;;;19.73;83.38;95429.66;1044720;28;19917;-73
2021/07/24 00:40:03;;;;;;;;;;;;;;;19.73;83.37;95420.75;1049117;28;20337;-73
2021/07/24 00:40:35;;;;;;;;;;;;;;;19.74;83.12;95422.31;1049189;28;20320;-73
2021/07/24 00:41:16;;;;;;;;;;;;;;;19.68;83.25;95424.47;1048777;28;19901;-73
2021/07/24 00:41:48;;;;;;;;;;;;;;;19.66;83.34;95425.97;1049103;28;20352;-73
2021/07/24 00:42:23;;;;;;;;;;;;;;;19.65;83.37;95419.72;1048671;28;19909;-73
2021/07/24 00:42:54;;;;;;;;;;;;;;;19.61;83.35;95428.91;1044682;28;19912;-73
2021/07/24 00:43:27;;;;;;;;;;;;;;;19.60;83.69;95425.38;1044683;28;19923;-74
2021/07/24 00:44:00;;;;;;;;;;;;;;;19.63;83.69;95423.94;1044746;28;19916;-74
2021/07/24 00:44:31;;;;;;;;;;;;;;;19.64;83.74;95422.78;1045712;28;19911;-73
2021/07/24 00:45:01;;;;;;;;;;;;;;;19.62;83.58;95416.94;1049114;28;19911;-73
2021/07/24 00:45:34;;;;;;;;;;;;;;;19.64;83.69;95425.50;1049088;28;19916;-74
2021/07/24 00:46:05;;;;;;;;;;;;;;;19.63;83.48;95413.88;1044647;28;20271;-73
2021/07/24 00:46:35;;;;;;;;;;;;;;;19.58;84.00;95416.00;1048799;28;19924;-73
2021/07/24 00:47:05;;;;;;;;;;;;;;;19.58;83.79;95413.28;1048849;28;19923;-73
2021/07/24 00:47:39;;;;;;;;;;;;;;;19.54;83.87;95413.19;1048710;28;20006;-73
2021/07/24 00:48:09;;;;;;;;;;;;;;;19.55;84.09;95414.78;1052524;28;19908;-73
2021/07/24 00:48:39;;;;;;;;;;;;;;;19.56;84.00;95419.06;1044691;28;19956;-74
2021/07/24 00:49:10;;;;;;;;;;;;;;;19.53;84.10;95419.72;1048597;28;20377;-73
2021/07/24 00:49:41;;;;;;;;;;;;;;;19.51;83.92;95416.59;1048735;28;19916;-73
2021/07/24 00:50:14;;;;;;;;;;;;;;;19.51;84.00;95413.88;1048795;28;19905;-73
2021/07/24 00:50:45;;;;;;;;;;;;;;;19.51;83.69;95419.28;1052420;28;19916;-73
2021/07/24 00:51:21;;;;;;;;;;;;;;;19.47;84.04;95415.69;1049114;28;19905;-73
2021/07/24 00:51:53;;;;;;;;;;;;;;;19.53;83.83;95410.81;1049018;28;19917;-73
2021/07/24 00:52:23;;;;;;;;;;;;;;;19.51;83.74;95419.28;1049078;28;20001;-73
2021/07/24 00:53:00;;;;;;;;;;;;;;;19.45;84.37;95410.59;1044562;28;19917;-73
2021/07/24 00:53:36;;;;;;;;;;;;;;;19.45;84.37;95416.03;1044675;28;19913;-73
2021/07/24 00:54:07;;;;;;;;;;;;;;;19.47;84.57;95418.38;1044616;28;19955;-73
2021/07/24 00:54:39;;;;;;;;;;;;;;;19.51;84.69;95419.28;1046447;28;19916;-73
2021/07/24 00:55:10;;;;;;;;;;;;;;;19.52;84.47;95420.09;1049072;28;19973;-73
2021/07/24 00:55:41;;;;;;;;;;;;;;;19.48;84.12;95415.31;1049061;28;19912;-73
2021/07/24 00:56:11;;;;;;;;;;;;;;;19.47;84.22;95415.69;1049025;28;19919;-73
2021/07/24 00:56:42;;;;;;;;;;;;;;;19.48;84.01;95414.53;1044669;28;19955;-74
2021/07/24 00:57:15;;;;;;;;;;;;;;;19.48;84.01;95414.53;1044566;28;19917;-74
2021/07/24 00:57:45;;;;;;;;;;;;;;;19.49;84.42;95414.19;1044669;28;19974;-73
2021/07/24 00:58:22;;;;;;;;;;;;;;;19.51;84.04;95413.09;1045068;28;19976;-73
2021/07/24 00:58:54;;;;;;;;;;;;;;;19.52;84.44;95420.09;1049041;28;19916;-74
2021/07/24 00:59:25;;;;;;;;;;;;;;;19.52;84.20;95422.78;1049025;28;20370;-73
2021/07/24 00:59:55;;;;;;;;;;;;;;;19.52;84.16;95406.53;1049116;28;19916;-73
2021/07/24 01:00:25;;;;;;;;;;;;;;;19.51;84.20;95415.78;1044583;28;19951;-73
2021/07/24 01:00:56;;;;;;;;;;;;;;;19.45;84.37;95410.59;1044621;28;20382;-74
2021/07/24 01:01:26;;;;;;;;;;;;;;;19.41;84.57;95412.41;1044331;28;20003;-73
2021/07/24 01:01:56;;;;;;;;;;;;;;;19.41;84.31;95406.22;1044641;28;19924;-73
2021/07/24 01:02:26;;;;;;;;;;;;;;;19.37;84.33;95408.00;1049070;28;19908;-73
2021/07/24 01:02:57;;;;;;;;;;;;;;;19.36;84.53;95401.81;1049078;28;19916;-73
2021/07/24 01:03:27;;;;;;;;;;;;;;;19.37;84.96;95406.09;1049102;28;20277;-73
2021/07/24 01:03:57;;;;;;;;;;;;;;;19.38;84.60;95410.38;1049036;28;19917;-73
2021/07/24 01:04:28;;;;;;;;;;;;;;;19.39;84.50;95408.44;1049008;28;20015;-73
2021/07/24 01:04:59;;;;;;;;;;;;;;;19.37;84.39;95406.09;1049064;28;20274;-73
2021/07/24 01:05:29;;;;;;;;;;;;;;;19.39;84.46;95411.16;1044645;28;20402;-73
2021/07/24 01:05:59;;;;;;;;;;;;;;;19.35;84.45;95408.34;1048770;28;19923;-73
2021/07/24 01:06:30;;;;;;;;;;;;;;;19.41;84.41;95414.34;1044557;28;19917;-73
2021/07/24 01:07:04;;;;;;;;;;;;;;;19.43;84.47;95417.47;1044751;28;20421;-73
2021/07/24 01:07:40;;;;;;;;;;;;;;;19.45;84.54;95412.53;1048073;28;19909;-73
2021/07/24 01:08:11;;;;;;;;;;;;;;;19.45;84.44;95416.03;1050215;28;19935;-73
2021/07/24 01:08:41;;;;;;;;;;;;;;;19.46;84.35;95414.88;1048896;28;20394;-73
2021/07/24 01:09:12;;;;;;;;;;;;;;;19.46;83.75;95414.88;1057172;28;20130;-73
2021/07/24 01:09:42;;;;;;;;;;;;;;;19.45;83.85;95416.03;1052740;28;19912;-73
2021/07/24 01:10:12;;;;;;;;;;;;;;;19.43;83.91;95412.06;1048821;28;19913;-73
2021/07/24 01:10:42;;;;;;;;;;;;;;;19.38;84.20;95406.88;1052816;28;20373;-73
2021/07/24 01:11:13;;;;;;;;;;;;;;;19.38;84.03;95410.38;1052931;28;19916;-73
2021/07/24 01:11:43;;;;;;;;;;;;;;;19.38;84.31;95409.59;1052911;28;20350;-73
2021/07/24 01:12:13;;;;;;;;;;;;;;;19.38;84.33;95415.00;1048648;28;20450;-73
2021/07/24 01:12:44;;;;;;;;;;;;;;;19.40;84.21;95407.34;1052778;28;19955;-73
2021/07/24 01:13:16;;;;;;;;;;;;;;;19.38;84.12;95407.66;1052928;28;19991;-73
2021/07/24 01:13:47;;;;;;;;;;;;;;;19.37;84.42;95414.22;1053194;28;19908;-74
2021/07/24 01:14:17;;;;;;;;;;;;;;;19.40;84.33;95415.47;1057473;28;20313;-73
2021/07/24 01:14:47;;;;;;;;;;;;;;;19.38;84.63;95404.16;1057236;28;19908;-73
2021/07/24 01:15:17;;;;;;;;;;;;;;;19.33;84.82;95399.75;1057466;28;19908;-74
2021/07/24 01:15:51;;;;;;;;;;;;;;;19.32;84.85;95406.31;1057372;28;20284;-73
2021/07/24 01:16:21;;;;;;;;;;;;;;;19.30;85.16;95402.38;1057433;28;19987;-73
2021/07/24 01:16:51;;;;;;;;;;;;;;;19.31;85.22;95398.53;1057313;28;20426;-73
2021/07/24 01:17:22;;;;;;;;;;;;;;;19.27;85.33;95403.84;1057434;28;19964;-73
2021/07/24 01:17:52;;;;;;;;;;;;;;;19.28;85.22;95401.91;1057268;28;19914;-74
2021/07/24 01:18:22;;;;;;;;;;;;;;;19.29;85.27;95400.78;1057298;28;20011;-73
2021/07/24 01:18:52;;;;;;;;;;;;;;;19.28;85.17;95399.19;1057301;28;19912;-73
2021/07/24 01:19:23;;;;;;;;;;;;;;;19.29;85.28;95398.06;1057379;28;20369;-73
2021/07/24 01:19:53;;;;;;;;;;;;;;;19.28;85.48;95399.19;1057378;28;19919;-73
2021/07/24 01:20:24;;;;;;;;;;;;;;;19.26;85.37;95396.84;1057422;28;19908;-73
2021/07/24 01:20:56;;;;;;;;;;;;;;;19.25;85.61;95400.69;1057316;28;19912;-73
2021/07/24 01:21:26;;;;;;;;;;;;;;;19.25;85.70;95399.91;1052822;28;19938;-73
2021/07/24 01:21:56;;;;;;;;;;;;;;;19.26;85.96;95401.47;1052868;28;20022;-73
2021/07/24 01:22:27;;;;;;;;;;;;;;;19.27;85.68;95400.34;1057286;28;19912;-73
2021/07/24 01:22:58;;;;;;;;;;;;;;;19.23;85.73;95403.72;1057084;28;19912;-73
2021/07/24 01:23:28;;;;;;;;;;;;;;;19.20;85.90;95404.41;1057118;28;19918;-73
2021/07/24 01:23:58;;;;;;;;;;;;;;;19.21;86.10;95395.16;1052666;28;20306;-73
2021/07/24 01:24:29;;;;;;;;;;;;;;;19.24;86.05;95393.66;1048686;28;19946;-73
2021/07/24 01:24:59;;;;;;;;;;;;;;;19.26;85.92;95399.56;1048568;28;19913;-74
2021/07/24 01:25:29;;;;;;;;;;;;;;;19.27;85.80;95397.63;1052869;28;19908;-73
2021/07/24 01:25:59;;;;;;;;;;;;;;;19.28;85.89;95396.50;1057338;28;20284;-73
2021/07/24 01:26:31;;;;;;;;;;;;;;;19.26;86.04;95393.34;1057381;28;19912;-73
2021/07/24 01:27:07;;;;;;;;;;;;;;;19.26;85.92;95390.63;1052807;28;19912;-74
2021/07/24 01:27:41;;;;;;;;;;;;;;;19.27;85.95;95392.22;1052748;28;19920;-73
2021/07/24 01:28:11;;;;;;;;;;;;;;;19.27;85.53;95393.00;1052845;28;19912;-73
2021/07/24 01:28:42;;;;;;;;;;;;;;;19.24;85.69;95385.53;1054378;28;20280;-73
2021/07/24 01:29:15;;;;;;;;;;;;;;;19.21;85.89;95383.53;1052753;28;20278;-72
2021/07/24 01:29:46;;;;;;;;;;;;;;;19.18;85.92;95381.47;1052825;28;19908;-72
2021/07/24 01:30:16;;;;;;;;;;;;;;;19.16;86.20;95386.47;1052855;28;19916;-72
2021/07/24 01:30:46;;;;;;;;;;;;;;;19.13;86.53;95381.72;1053332;28;20681;-73
2021/07/24 01:31:17;;;;;;;;;;;;;;;19.15;86.58;95379.47;1057437;28;19912;-73
2021/07/24 01:31:47;;;;;;;;;;;;;;;19.14;86.32;95380.56;1057267;28;20341;-73
2021/07/24 01:32:17;;;;;;;;;;;;;;;19.10;86.42;95377.00;1057255;28;19993;-73
2021/07/24 01:32:47;;;;;;;;;;;;;;;19.11;86.66;95382.06;1052868;28;19916;-73
2021/07/24 01:33:18;;;;;;;;;;;;;;;19.12;86.62;95374.72;1052866;28;20292;-73
2021/07/24 01:33:48;;;;;;;;;;;;;;;19.13;86.68;95382.50;1052704;28;19919;-73
2021/07/24 01:34:18;;;;;;;;;;;;;;;19.10;86.77;95383.19;1052752;28;19916;-73
2021/07/24 01:34:49;;;;;;;;;;;;;;;19.08;87.09;95377.31;1057329;28;19969;-73
2021/07/24 01:35:19;;;;;;;;;;;;;;;19.08;87.02;95380.00;1057285;28;19908;-73
2021/07/24 01:35:50;;;;;;;;;;;;;;;19.08;87.10;95377.31;1057269;28;19907;-72
2021/07/24 01:36:20;;;;;;;;;;;;;;;19.07;87.25;95381.16;1057376;28;19904;-72
2021/07/24 01:36:50;;;;;;;;;;;;;;;19.06;87.12;95376.88;1057357;28;19904;-73
2021/07/24 01:37:20;;;;;;;;;;;;;;;19.07;87.15;95381.16;1057382;28;19911;-72
2021/07/24 01:37:51;;;;;;;;;;;;;;;19.06;87.01;95384.22;1057273;28;19911;-73
2021/07/24 01:38:21;;;;;;;;;;;;;;;19.04;87.45;95375.63;1057448;28;19939;-73
2021/07/24 01:38:52;;;;;;;;;;;;;;;19.02;87.49;95372.47;1055658;28;20345;-73
2021/07/24 01:39:22;;;;;;;;;;;;;;;19.01;87.54;95390.63;1053147;28;19912;-73
2021/07/24 01:39:52;;;;;;;;;;;;;;;19.02;87.82;95375.97;1048614;28;19907;-73
2021/07/24 01:40:23;;;;;;;;;;;;;;;19.05;87.79;95374.50;1048639;28;19936;-73
2021/07/24 01:40:53;;;;;;;;;;;;;;;19.02;87.88;95380.59;1048689;28;19909;-73
2021/07/24 01:41:23;;;;;;;;;;;;;;;18.98;88.03;95380.47;1048738;28;20397;-74
2021/07/24 01:41:55;;;;;;;;;;;;;;;18.97;88.23;95373.47;1053111;28;20000;-73
2021/07/24 01:42:25;;;;;;;;;;;;;;;18.97;88.14;95384.31;1053230;28;20265;-73
2021/07/24 01:42:56;;;;;;;;;;;;;;;18.98;88.09;95385.09;1053156;28;19904;-73
2021/07/24 01:43:26;;;;;;;;;;;;;;;18.98;88.17;95385.88;1053179;28;19998;-73
2021/07/24 01:43:56;;;;;;;;;;;;;;;19.00;88.32;95385.56;1053071;28;19957;-74
2021/07/24 01:44:27;;;;;;;;;;;;;;;19.03;88.60;95382.94;1048620;28;19905;-74
2021/07/24 01:44:57;;;;;;;;;;;;;;;18.99;88.08;95387.50;1048617;28;20051;-75
2021/07/24 01:45:27;;;;;;;;;;;;;;;19.00;88.12;95391.78;1048730;28;19935;-74
2021/07/24 01:45:59;;;;;;;;;;;;;;;18.97;88.32;95392.44;1048624;28;20246;-74
2021/07/24 01:46:29;;;;;;;;;;;;;;;19.00;88.33;95391.78;1053114;28;19908;-74
2021/07/24 01:47:00;;;;;;;;;;;;;;;19.00;88.04;95391.78;1053137;28;20352;-74
2021/07/24 01:47:33;;;;;;;;;;;;;;;18.99;88.21;95395.59;1057011;28;19911;-74
2021/07/24 01:48:07;;;;;;;;;;;;;;;18.98;88.32;95399.41;1052829;28;19904;-74
2021/07/24 01:49:14;;;;;;;;;;;;;;;18.97;88.50;95395.13;1047688;28;19908;-74
2021/07/24 01:53:08;;;;;;;;;;;;;;;18.88;89.24;95394.44;1053186;28;19900;-74
2021/07/24 01:53:38;;;;;;;;;;;;;;;18.87;89.48;95384.75;1053194;28;20276;-74
2021/07/24 01:54:16;;;;;;;;;;;;;;;18.85;89.97;95382.38;1048700;28;19908;-73
2021/07/24 01:54:48;;;;;;;;;;;;;;;18.83;90.15;95389.25;1052771;28;20266;-74
2021/07/24 01:55:37;;;;;;;;;;;;;;;18.84;90.09;95385.44;1052826;28;19916;-74
2021/07/24 01:56:10;;;;;;;;;;;;;;;18.83;90.33;95390.03;1056760;28;19900;-75
2021/07/24 01:56:41;;;;;;;;;;;;;;;18.83;90.31;95389.25;1049566;28;20412;-74
2021/07/24 01:57:11;;;;;;;;;;;;;;;18.81;90.34;95389.59;1048531;28;19912;-73
2021/07/24 01:57:42;;;;;;;;;;;;;;;18.76;90.79;95391.75;1048671;28;19997;-74
2021/07/24 01:58:13;;;;;;;;;;;;;;;18.75;91.13;95387.47;1048621;28;19999;-74
2021/07/24 01:58:43;;;;;;;;;;;;;;;18.78;90.72;95387.56;1048618;28;20422;-73
2021/07/24 01:59:14;;;;;;;;;;;;;;;18.79;90.92;95389.16;1048754;28;19916;-74
2021/07/24 01:59:45;;;;;;;;;;;;;;;18.82;90.56;95388.47;1048674;28;19957;-74
2021/07/24 02:00:16;;;;;;;;;;;;;;;18.82;90.79;95393.09;1048618;28;19969;-73
2021/07/24 02:00:46;;;;;;;;;;;;;;;18.82;90.95;95387.69;1048599;28;20320;-73
2021/07/24 02:01:17;;;;;;;;;;;;;;;18.82;91.00;95393.09;1048734;28;19943;-74
2021/07/24 02:01:49;;;;;;;;;;;;;;;18.84;91.06;95396.28;1052808;28;19904;-74
2021/07/24 02:02:19;;;;;;;;;;;;;;;18.85;91.01;95392.44;1052543;28;19962;-74
2021/07/24 02:02:50;;;;;;;;;;;;;;;18.86;91.18;95389.38;1048509;28;19922;-75
2021/07/24 02:03:20;;;;;;;;;;;;;;;18.86;91.18;95388.59;1048643;28;19942;-74
2021/07/24 02:04:01;;;;;;;;;;;;;;;18.83;91.64;95394.66;1048640;28;20424;-74
2021/07/24 02:04:32;;;;;;;;;;;;;;;18.84;91.22;95393.56;1048649;28;19916;-73
2021/07/24 02:05:04;;;;;;;;;;;;;;;18.87;91.08;95395.59;1048571;28;20250;-73
2021/07/24 02:05:41;;;;;;;;;;;;;;;18.90;90.81;95395.72;1046977;28;19931;-73
2021/07/24 02:06:12;;;;;;;;;;;;;;;18.91;91.01;95396.50;1045683;28;19905;-74
2021/07/24 02:06:42;;;;;;;;;;;;;;;18.90;91.17;95389.50;1048647;28;20276;-73
2021/07/24 02:07:13;;;;;;;;;;;;;;;18.93;91.04;95395.00;1048571;28;19900;-73
2021/07/24 02:07:43;;;;;;;;;;;;;;;18.95;91.15;95392.00;1048630;28;19905;-73
2021/07/24 02:08:20;;;;;;;;;;;;;;;18.96;91.94;95393.56;1048587;28;19904;-73
2021/07/24 02:08:51;;;;;;;;;;;;;;;18.98;91.89;95401.34;1047113;28;19904;-73
2021/07/24 02:09:21;;;;;;;;;;;;;;;18.94;92.15;95390.41;1045501;28;19916;-73
2021/07/24 02:09:51;;;;;;;;;;;;;;;18.95;92.27;95395.50;1048852;28;19936;-74
2021/07/24 02:10:21;;;;;;;;;;;;;;;18.96;92.20;95390.84;1048858;28;19917;-73
2021/07/24 02:10:52;;;;;;;;;;;;;;;18.97;92.32;95392.44;1048974;28;19911;-73
2021/07/24 02:11:22;;;;;;;;;;;;;;;18.93;93.03;95394.22;1048726;28;20281;-73
2021/07/24 02:11:52;;;;;;;;;;;;;;;18.91;92.99;95388.38;1048917;28;19930;-73
2021/07/24 02:12:23;;;;;;;;;;;;;;;18.90;93.18;95392.22;1048789;28;19962;-73
2021/07/24 02:12:53;;;;;;;;;;;;;;;18.90;93.64;95394.91;1048834;28;19900;-73
2021/07/24 02:13:24;;;;;;;;;;;;;;;18.87;93.89;95390.97;1048901;28;19916;-73
2021/07/24 02:13:54;;;;;;;;;;;;;;;18.87;94.04;95401.00;1049638;28;19904;-73
2021/07/24 02:14:24;;;;;;;;;;;;;;;18.87;93.75;95390.16;1049620;28;20343;-73
2021/07/24 02:14:55;;;;;;;;;;;;;;;18.83;94.70;95395.44;1045250;28;20277;-73
2021/07/24 02:15:25;;;;;;;;;;;;;;;18.83;94.57;95394.66;1049314;28;19920;-73
2021/07/24 02:15:59;;;;;;;;;;;;;;;18.78;95.13;95397.59;1049395;28;19905;-73
2021/07/24 02:16:29;;;;;;;;;;;;;;;18.77;95.16;95401.44;1049360;28;19938;-73
2021/07/24 02:16:59;;;;;;;;;;;;;;;18.73;95.73;95393.19;1048943;28;19905;-73
2021/07/24 02:17:30;;;;;;;;;;;;;;;18.68;96.58;95393.41;1045555;28;19975;-73
2021/07/24 02:18:00;;;;;;;;;;;;;;;18.72;95.90;95398.94;1049660;28;19901;-73
2021/07/24 02:18:30;;;;;;;;;;;;;;;18.68;96.51;95398.81;1045135;28;19924;-72
2021/07/24 02:19:01;;;;;;;;;;;;;;;18.69;96.18;95405.84;1049332;28;19905;-73
2021/07/24 02:19:31;;;;;;;;;;;;;;;18.68;96.36;95396.13;1045137;28;19959;-73
2021/07/24 02:20:02;;;;;;;;;;;;;;;18.70;96.40;95402.00;1041089;28;19932;-73
2021/07/24 02:20:32;;;;;;;;;;;;;;;18.68;96.68;95398.81;1040963;28;19988;-73
2021/07/24 02:21:02;;;;;;;;;;;;;;;18.66;97.04;95407.25;1037075;28;20358;-73
2021/07/24 02:21:33;;;;;;;;;;;;;;;18.65;97.01;95402.97;1041109;28;19920;-73
2021/07/24 02:22:03;;;;;;;;;;;;;;;18.69;96.51;95405.84;1045028;28;19911;-73
2021/07/24 02:22:33;;;;;;;;;;;;;;;18.68;96.95;95415.88;1049665;28;19917;-73
2021/07/24 02:23:03;;;;;;;;;;;;;;;18.65;97.09;95411.09;1053544;28;19904;-73
2021/07/24 02:23:34;;;;;;;;;;;;;;;18.62;97.49;95411.75;1049325;28;20377;-73
2021/07/24 02:24:04;;;;;;;;;;;;;;;18.56;97.82;95417.72;1049389;28;19971;-74
2021/07/24 02:24:34;;;;;;;;;;;;;;;18.55;97.55;95416.94;1049117;28;19939;-73
2021/07/24 02:25:05;;;;;;;;;;;;;;;18.55;97.52;95416.94;1045261;28;19901;-73
2021/07/24 02:25:35;;;;;;;;;;;;;;;18.53;97.62;95423.78;1049586;28;20384;-74
2021/07/24 02:26:08;;;;;;;;;;;;;;;18.52;97.43;95420.28;1049629;28;19948;-73
2021/07/24 02:26:42;;;;;;;;;;;;;;;18.51;97.98;95426.03;1049717;28;19917;-74
2021/07/24 02:27:12;;;;;;;;;;;;;;;18.50;97.79;95416.34;1049587;28;19905;-73
2021/07/24 02:27:43;;;;;;;;;;;;;;;18.50;97.93;95425.25;1049607;28;19905;-73
2021/07/24 02:28:13;;;;;;;;;;;;;;;18.47;98.51;95422.41;1049631;28;20358;-74
2021/07/24 02:28:44;;;;;;;;;;;;;;;18.43;98.62;95422.31;1049639;28;19904;-73
2021/07/24 02:29:14;;;;;;;;;;;;;;;18.47;98.53;95423.19;1049591;28;19912;-73
2021/07/24 02:29:44;;;;;;;;;;;;;;;18.45;98.26;95418.13;1049529;28;20343;-73
2021/07/24 02:30:15;;;;;;;;;;;;;;;18.48;98.16;95418.59;1049666;28;19911;-73
2021/07/24 02:30:45;;;;;;;;;;;;;;;18.50;97.98;95419.06;1049661;28;19905;-74
2021/07/24 02:31:15;;;;;;;;;;;;;;;18.49;97.92;95417.47;1049634;28;20341;-73
2021/07/24 02:31:46;;;;;;;;;;;;;;;18.48;97.75;95416.69;1049565;28;19904;-73
2021/07/24 02:32:17;;;;;;;;;;;;;;;18.46;97.65;95418.91;1049592;28;19988;-73
2021/07/24 02:32:47;;;;;;;;;;;;;;;18.46;97.49;95418.91;1049611;28;19916;-73
2021/07/24 02:33:19;;;;;;;;;;;;;;;18.45;97.48;95420.84;1049603;28;19912;-73
2021/07/24 02:33:49;;;;;;;;;;;;;;;18.47;97.38;95419.72;1049570;28;20003;-73
2021/07/24 02:34:19;;;;;;;;;;;;;;;18.44;97.49;95416.56;1049412;28;20058;-73
2021/07/24 02:34:49;;;;;;;;;;;;;;;18.43;97.46;95415.00;1049577;28;20281;-74
2021/07/24 02:35:20;;;;;;;;;;;;;;;18.44;97.43;95413.06;1049611;28;20273;-73
2021/07/24 02:35:52;;;;;;;;;;;;;;;18.47;97.19;95414.31;1048882;28;22366;-73
2021/07/24 02:36:22;;;;;;;;;;;;;;;18.45;97.06;95415.44;1049515;28;19923;-73
2021/07/24 02:36:52;;;;;;;;;;;;;;;18.44;97.10;95419.25;1045243;28;19959;-73
2021/07/24 02:37:23;;;;;;;;;;;;;;;18.45;97.25;95412.72;1045173;28;19909;-74
2021/07/24 02:37:53;;;;;;;;;;;;;;;18.46;97.22;95418.91;1045165;28;19913;-73
2021/07/24 02:38:23;;;;;;;;;;;;;;;18.44;97.34;95415.78;1045135;28;19939;-73
2021/07/24 02:38:53;;;;;;;;;;;;;;;18.40;97.53;95417.56;1051403;28;19935;-73
2021/07/24 02:39:24;;;;;;;;;;;;;;;18.41;97.64;95419.13;1053783;28;20217;-73
2021/07/24 02:39:54;;;;;;;;;;;;;;;18.40;97.57;95418.34;1053666;28;20353;-73
2021/07/24 02:40:24;;;;;;;;;;;;;;;18.42;97.52;95420.72;1053736;28;19916;-73
2021/07/24 02:40:55;;;;;;;;;;;;;;;18.43;97.75;95427.72;1053764;28;19919;-73
2021/07/24 02:41:25;;;;;;;;;;;;;;;18.40;97.76;95418.34;1053863;28;20010;-73
2021/07/24 02:41:55;;;;;;;;;;;;;;;18.41;97.72;95421.84;1053761;28;19908;-73
2021/07/24 02:42:25;;;;;;;;;;;;;;;18.40;97.77;95425.69;1053711;28;19919;-73
2021/07/24 02:42:56;;;;;;;;;;;;;;;18.38;98.23;95425.22;1053806;28;19962;-73
2021/07/24 02:43:26;;;;;;;;;;;;;;;18.42;97.98;95428.81;1053721;28;19909;-73
2021/07/24 02:43:56;;;;;;;;;;;;;;;18.40;98.29;95434.56;1053798;28;19912;-73
2021/07/24 02:44:27;;;;;;;;;;;;;;;18.39;98.34;95424.09;1053755;28;19916;-73
2021/07/24 02:44:57;;;;;;;;;;;;;;;18.35;99.01;95429.38;1053818;28;20365;-73
2021/07/24 02:45:28;;;;;;;;;;;;;;;18.40;98.45;95431.09;1053728;28;19912;-73